sensor_id;sensor_type;location;lat;lon;timestamp;P1;durP1;ratioP1;P2;durP2;ratioP2
3627;SDS011;1830;49.000;12.074;2023-07-22T00:00:54;7.40;;;3.23;;
3627;SDS011;1830;49.000;12.074;2023-07-22T00:03:21;6.40;;;3.90;;
3627;SDS011;1830;49.000;12.074;2023-07-22T00:05:48;4.20;;;3.37;;
3627;SDS011;1830;49.000;12.074;2023-07-22T00:08:27;7.90;;;3.87;;
3627;SDS011;1830;49.000;12.074;2023-07-22T00:10:55;4.00;;;3.00;;
3627;SDS011;1830;49.000;12.074;2023-07-22T00:13:22;4.53;;;3.33;;
3627;SDS011;1830;49.000;12.074;2023-07-22T00:15:51;4.10;;;3.63;;
3627;SDS011;1830;49.000;12.074;2023-07-22T00:18:18;3.47;;;3.17;;
3627;SDS011;1830;49.000;12.074;2023-07-22T00:20:45;4.73;;;3.13;;
3627;SDS011;1830;49.000;12.074;2023-07-22T00:23:12;4.17;;;3.77;;
3627;SDS011;1830;49.000;12.074;2023-07-22T00:25:40;3.13;;;2.67;;
3627;SDS011;1830;49.000;12.074;2023-07-22T00:28:08;4.97;;;3.10;;
3627;SDS011;1830;49.000;12.074;2023-07-22T00:30:35;9.40;;;3.47;;
3627;SDS011;1830;49.000;12.074;2023-07-22T00:33:02;5.07;;;3.57;;
3627;SDS011;1830;49.000;12.074;2023-07-22T00:35:28;3.83;;;3.30;;
3627;SDS011;1830;49.000;12.074;2023-07-22T00:37:56;5.20;;;3.20;;
3627;SDS011;1830;49.000;12.074;2023-07-22T00:40:23;4.53;;;3.10;;
3627;SDS011;1830;49.000;12.074;2023-07-22T00:42:50;5.83;;;2.90;;
3627;SDS011;1830;49.000;12.074;2023-07-22T00:45:19;7.50;;;3.27;;
3627;SDS011;1830;49.000;12.074;2023-07-22T00:47:45;5.17;;;2.97;;
3627;SDS011;1830;49.000;12.074;2023-07-22T00:50:13;5.00;;;3.30;;
3627;SDS011;1830;49.000;12.074;2023-07-22T00:52:40;3.60;;;3.30;;
3627;SDS011;1830;49.000;12.074;2023-07-22T00:55:07;3.40;;;3.10;;
3627;SDS011;1830;49.000;12.074;2023-07-22T00:57:35;4.20;;;3.20;;
3627;SDS011;1830;49.000;12.074;2023-07-22T01:00:03;6.30;;;3.20;;
3627;SDS011;1830;49.000;12.074;2023-07-22T01:02:32;6.10;;;3.30;;
3627;SDS011;1830;49.000;12.074;2023-07-22T01:04:59;6.00;;;3.33;;
3627;SDS011;1830;49.000;12.074;2023-07-22T01:07:26;3.40;;;3.10;;
3627;SDS011;1830;49.000;12.074;2023-07-22T01:09:55;3.73;;;3.43;;
3627;SDS011;1830;49.000;12.074;2023-07-22T01:12:23;5.90;;;3.27;;
3627;SDS011;1830;49.000;12.074;2023-07-22T01:14:50;3.97;;;3.57;;
3627;SDS011;1830;49.000;12.074;2023-07-22T01:17:17;3.50;;;3.20;;
3627;SDS011;1830;49.000;12.074;2023-07-22T01:19:46;4.33;;;3.33;;
3627;SDS011;1830;49.000;12.074;2023-07-22T01:22:13;7.60;;;2.97;;
3627;SDS011;1830;49.000;12.074;2023-07-22T01:24:42;3.50;;;3.23;;
3627;SDS011;1830;49.000;12.074;2023-07-22T01:27:09;3.50;;;3.20;;
3627;SDS011;1830;49.000;12.074;2023-07-22T01:29:37;3.67;;;3.37;;
3627;SDS011;1830;49.000;12.074;2023-07-22T01:32:04;3.73;;;3.33;;
3627;SDS011;1830;49.000;12.074;2023-07-22T01:34:31;3.53;;;3.23;;
3627;SDS011;1830;49.000;12.074;2023-07-22T01:36:58;5.23;;;3.60;;
3627;SDS011;1830;49.000;12.074;2023-07-22T01:39:25;8.67;;;4.17;;
3627;SDS011;1830;49.000;12.074;2023-07-22T01:41:54;4.83;;;3.77;;
3627;SDS011;1830;49.000;12.074;2023-07-22T01:44:21;9.00;;;3.80;;
3627;SDS011;1830;49.000;12.074;2023-07-22T01:46:48;4.10;;;3.70;;
3627;SDS011;1830;49.000;12.074;2023-07-22T01:49:15;5.80;;;3.33;;
3627;SDS011;1830;49.000;12.074;2023-07-22T01:51:42;4.50;;;3.20;;
3627;SDS011;1830;49.000;12.074;2023-07-22T01:54:09;4.07;;;3.63;;
3627;SDS011;1830;49.000;12.074;2023-07-22T01:56:37;3.30;;;3.10;;
3627;SDS011;1830;49.000;12.074;2023-07-22T01:59:06;10.30;;;4.20;;
3627;SDS011;1830;49.000;12.074;2023-07-22T02:01:33;4.20;;;3.80;;
3627;SDS011;1830;49.000;12.074;2023-07-22T02:04:00;5.43;;;3.90;;
3627;SDS011;1830;49.000;12.074;2023-07-22T02:06:27;3.80;;;3.50;;
3627;SDS011;1830;49.000;12.074;2023-07-22T02:08:54;5.80;;;3.80;;
3627;SDS011;1830;49.000;12.074;2023-07-22T02:11:22;3.20;;;2.90;;
3627;SDS011;1830;49.000;12.074;2023-07-22T02:13:48;7.97;;;4.07;;
3627;SDS011;1830;49.000;12.074;2023-07-22T02:16:17;4.10;;;3.70;;
3627;SDS011;1830;49.000;12.074;2023-07-22T02:18:43;4.30;;;3.23;;
3627;SDS011;1830;49.000;12.074;2023-07-22T02:21:10;4.20;;;3.73;;
3627;SDS011;1830;49.000;12.074;2023-07-22T02:23:37;4.43;;;3.40;;
3627;SDS011;1830;49.000;12.074;2023-07-22T02:26:04;4.30;;;3.90;;
3627;SDS011;1830;49.000;12.074;2023-07-22T02:28:30;11.30;;;3.90;;
3627;SDS011;1830;49.000;12.074;2023-07-22T02:31:00;6.17;;;3.83;;
3627;SDS011;1830;49.000;12.074;2023-07-22T02:33:30;3.90;;;3.47;;
3627;SDS011;1830;49.000;12.074;2023-07-22T02:35:57;4.87;;;4.43;;
3627;SDS011;1830;49.000;12.074;2023-07-22T02:38:23;9.13;;;3.63;;
3627;SDS011;1830;49.000;12.074;2023-07-22T02:40:50;6.30;;;4.03;;
3627;SDS011;1830;49.000;12.074;2023-07-22T02:43:17;9.17;;;3.70;;
3627;SDS011;1830;49.000;12.074;2023-07-22T02:45:44;5.73;;;4.07;;
3627;SDS011;1830;49.000;12.074;2023-07-22T02:48:10;4.03;;;3.63;;
3627;SDS011;1830;49.000;12.074;2023-07-22T02:50:39;6.23;;;3.80;;
3627;SDS011;1830;49.000;12.074;2023-07-22T02:53:05;7.37;;;3.90;;
3627;SDS011;1830;49.000;12.074;2023-07-22T02:55:32;4.27;;;3.87;;
3627;SDS011;1830;49.000;12.074;2023-07-22T02:57:59;5.10;;;3.80;;
3627;SDS011;1830;49.000;12.074;2023-07-22T03:00:26;4.17;;;3.80;;
3627;SDS011;1830;49.000;12.074;2023-07-22T03:02:53;4.33;;;3.70;;
3627;SDS011;1830;49.000;12.074;2023-07-22T03:05:25;6.57;;;3.37;;
3627;SDS011;1830;49.000;12.074;2023-07-22T03:07:54;4.13;;;3.33;;
3627;SDS011;1830;49.000;12.074;2023-07-22T03:10:21;4.83;;;3.60;;
3627;SDS011;1830;49.000;12.074;2023-07-22T03:12:48;5.20;;;3.90;;
3627;SDS011;1830;49.000;12.074;2023-07-22T03:15:19;9.87;;;4.40;;
3627;SDS011;1830;49.000;12.074;2023-07-22T03:17:47;5.80;;;4.10;;
3627;SDS011;1830;49.000;12.074;2023-07-22T03:20:14;4.63;;;4.17;;
3627;SDS011;1830;49.000;12.074;2023-07-22T03:22:41;3.90;;;3.50;;
3627;SDS011;1830;49.000;12.074;2023-07-22T03:25:10;6.23;;;4.40;;
3627;SDS011;1830;49.000;12.074;2023-07-22T03:27:38;5.20;;;4.67;;
3627;SDS011;1830;49.000;12.074;2023-07-22T03:30:05;7.90;;;4.30;;
3627;SDS011;1830;49.000;12.074;2023-07-22T03:32:33;4.57;;;4.10;;
3627;SDS011;1830;49.000;12.074;2023-07-22T03:35:00;4.37;;;3.97;;
3627;SDS011;1830;49.000;12.074;2023-07-22T03:37:28;6.00;;;4.37;;
3627;SDS011;1830;49.000;12.074;2023-07-22T03:39:55;5.10;;;4.00;;
3627;SDS011;1830;49.000;12.074;2023-07-22T03:42:23;10.77;;;4.77;;
3627;SDS011;1830;49.000;12.074;2023-07-22T03:44:49;12.80;;;5.40;;
3627;SDS011;1830;49.000;12.074;2023-07-22T03:47:16;9.13;;;5.40;;
3627;SDS011;1830;49.000;12.074;2023-07-22T03:49:43;6.57;;;5.07;;
3627;SDS011;1830;49.000;12.074;2023-07-22T03:52:10;5.37;;;3.80;;
3627;SDS011;1830;49.000;12.074;2023-07-22T03:54:39;5.87;;;4.30;;
3627;SDS011;1830;49.000;12.074;2023-07-22T03:57:06;4.30;;;3.90;;
3627;SDS011;1830;49.000;12.074;2023-07-22T03:59:34;6.90;;;3.90;;
3627;SDS011;1830;49.000;12.074;2023-07-22T04:02:01;4.40;;;4.00;;
3627;SDS011;1830;49.000;12.074;2023-07-22T04:04:27;8.63;;;4.20;;
3627;SDS011;1830;49.000;12.074;2023-07-22T04:06:54;4.63;;;4.00;;
3627;SDS011;1830;49.000;12.074;2023-07-22T04:09:21;8.77;;;3.67;;
3627;SDS011;1830;49.000;12.074;2023-07-22T04:11:48;12.03;;;4.30;;
3627;SDS011;1830;49.000;12.074;2023-07-22T04:14:15;7.23;;;4.07;;
3627;SDS011;1830;49.000;12.074;2023-07-22T04:16:43;6.60;;;4.40;;
3627;SDS011;1830;49.000;12.074;2023-07-22T04:19:10;4.90;;;4.50;;
3627;SDS011;1830;49.000;12.074;2023-07-22T04:21:36;4.83;;;4.30;;
3627;SDS011;1830;49.000;12.074;2023-07-22T04:24:03;6.50;;;4.80;;
3627;SDS011;1830;49.000;12.074;2023-07-22T04:26:31;10.30;;;4.33;;
3627;SDS011;1830;49.000;12.074;2023-07-22T04:28:59;6.03;;;4.47;;
3627;SDS011;1830;49.000;12.074;2023-07-22T04:31:26;5.80;;;4.60;;
3627;SDS011;1830;49.000;12.074;2023-07-22T04:33:54;13.77;;;5.23;;
3627;SDS011;1830;49.000;12.074;2023-07-22T04:36:21;4.53;;;4.10;;
3627;SDS011;1830;49.000;12.074;2023-07-22T04:38:47;7.30;;;4.57;;
3627;SDS011;1830;49.000;12.074;2023-07-22T04:41:14;6.53;;;4.33;;
3627;SDS011;1830;49.000;12.074;2023-07-22T04:43:41;5.73;;;4.50;;
3627;SDS011;1830;49.000;12.074;2023-07-22T04:46:08;6.33;;;4.60;;
3627;SDS011;1830;49.000;12.074;2023-07-22T04:48:35;11.03;;;4.73;;
3627;SDS011;1830;49.000;12.074;2023-07-22T04:51:03;8.83;;;4.93;;
3627;SDS011;1830;49.000;12.074;2023-07-22T04:53:30;9.63;;;4.57;;
3627;SDS011;1830;49.000;12.074;2023-07-22T04:55:58;6.00;;;4.90;;
3627;SDS011;1830;49.000;12.074;2023-07-22T04:58:25;6.17;;;5.57;;
3627;SDS011;1830;49.000;12.074;2023-07-22T05:00:52;7.00;;;4.30;;
3627;SDS011;1830;49.000;12.074;2023-07-22T05:03:18;8.07;;;4.90;;
3627;SDS011;1830;49.000;12.074;2023-07-22T05:05:45;6.13;;;4.17;;
3627;SDS011;1830;49.000;12.074;2023-07-22T05:08:13;6.20;;;5.00;;
3627;SDS011;1830;49.000;12.074;2023-07-22T05:10:40;8.13;;;4.30;;
3627;SDS011;1830;49.000;12.074;2023-07-22T05:13:07;6.60;;;4.10;;
3627;SDS011;1830;49.000;12.074;2023-07-22T05:15:34;12.90;;;4.50;;
3627;SDS011;1830;49.000;12.074;2023-07-22T05:18:01;7.80;;;4.40;;
3627;SDS011;1830;49.000;12.074;2023-07-22T05:20:27;8.13;;;4.23;;
3627;SDS011;1830;49.000;12.074;2023-07-22T05:22:54;8.50;;;4.67;;
3627;SDS011;1830;49.000;12.074;2023-07-22T05:25:23;6.57;;;4.97;;
3627;SDS011;1830;49.000;12.074;2023-07-22T05:27:50;9.90;;;5.23;;
3627;SDS011;1830;49.000;12.074;2023-07-22T05:30:16;7.20;;;5.20;;
3627;SDS011;1830;49.000;12.074;2023-07-22T05:32:43;7.07;;;4.60;;
3627;SDS011;1830;49.000;12.074;2023-07-22T05:35:10;5.23;;;4.00;;
3627;SDS011;1830;49.000;12.074;2023-07-22T05:37:37;4.93;;;3.90;;
3627;SDS011;1830;49.000;12.074;2023-07-22T05:40:04;6.43;;;4.63;;
3627;SDS011;1830;49.000;12.074;2023-07-22T05:42:33;10.90;;;4.80;;
3627;SDS011;1830;49.000;12.074;2023-07-22T05:45:01;9.40;;;4.13;;
3627;SDS011;1830;49.000;12.074;2023-07-22T05:47:28;4.50;;;4.10;;
3627;SDS011;1830;49.000;12.074;2023-07-22T05:49:55;5.63;;;3.80;;
3627;SDS011;1830;49.000;12.074;2023-07-22T05:52:22;12.27;;;4.50;;
3627;SDS011;1830;49.000;12.074;2023-07-22T05:54:49;6.27;;;4.60;;
3627;SDS011;1830;49.000;12.074;2023-07-22T05:57:16;4.70;;;3.77;;
3627;SDS011;1830;49.000;12.074;2023-07-22T05:59:44;4.50;;;4.10;;
3627;SDS011;1830;49.000;12.074;2023-07-22T06:02:12;4.60;;;3.60;;
3627;SDS011;1830;49.000;12.074;2023-07-22T06:04:39;5.17;;;4.67;;
3627;SDS011;1830;49.000;12.074;2023-07-22T06:07:06;4.40;;;4.00;;
3627;SDS011;1830;49.000;12.074;2023-07-22T06:09:33;8.93;;;4.20;;
3627;SDS011;1830;49.000;12.074;2023-07-22T06:12:00;6.00;;;3.90;;
3627;SDS011;1830;49.000;12.074;2023-07-22T06:14:27;5.03;;;3.70;;
3627;SDS011;1830;49.000;12.074;2023-07-22T06:16:55;11.60;;;4.43;;
3627;SDS011;1830;49.000;12.074;2023-07-22T06:19:22;5.20;;;4.00;;
3627;SDS011;1830;49.000;12.074;2023-07-22T06:21:49;10.53;;;4.20;;
3627;SDS011;1830;49.000;12.074;2023-07-22T06:24:16;6.97;;;5.00;;
3627;SDS011;1830;49.000;12.074;2023-07-22T06:26:43;5.33;;;4.63;;
3627;SDS011;1830;49.000;12.074;2023-07-22T06:29:10;7.93;;;4.07;;
3627;SDS011;1830;49.000;12.074;2023-07-22T06:31:37;5.57;;;4.13;;
3627;SDS011;1830;49.000;12.074;2023-07-22T06:34:05;5.90;;;3.40;;
3627;SDS011;1830;49.000;12.074;2023-07-22T06:36:32;5.20;;;4.20;;
3627;SDS011;1830;49.000;12.074;2023-07-22T06:38:59;6.00;;;4.37;;
3627;SDS011;1830;49.000;12.074;2023-07-22T06:41:25;4.60;;;3.90;;
3627;SDS011;1830;49.000;12.074;2023-07-22T06:43:52;10.50;;;3.83;;
3627;SDS011;1830;49.000;12.074;2023-07-22T06:46:19;4.77;;;4.03;;
3627;SDS011;1830;49.000;12.074;2023-07-22T06:48:46;5.03;;;4.53;;
3627;SDS011;1830;49.000;12.074;2023-07-22T06:51:14;5.97;;;3.50;;
3627;SDS011;1830;49.000;12.074;2023-07-22T06:53:41;3.80;;;3.50;;
3627;SDS011;1830;49.000;12.074;2023-07-22T06:56:08;5.53;;;3.63;;
3627;SDS011;1830;49.000;12.074;2023-07-22T06:58:35;3.80;;;3.43;;
3627;SDS011;1830;49.000;12.074;2023-07-22T07:01:02;4.73;;;4.10;;
3627;SDS011;1830;49.000;12.074;2023-07-22T07:03:29;12.43;;;3.77;;
3627;SDS011;1830;49.000;12.074;2023-07-22T07:05:57;3.93;;;3.47;;
3627;SDS011;1830;49.000;12.074;2023-07-22T07:08:25;4.83;;;3.30;;
3627;SDS011;1830;49.000;12.074;2023-07-22T07:10:52;6.67;;;3.60;;
3627;SDS011;1830;49.000;12.074;2023-07-22T07:13:18;7.77;;;4.00;;
3627;SDS011;1830;49.000;12.074;2023-07-22T07:15:46;3.93;;;3.53;;
3627;SDS011;1830;49.000;12.074;2023-07-22T07:18:14;4.07;;;3.60;;
3627;SDS011;1830;49.000;12.074;2023-07-22T07:20:42;17.73;;;5.17;;
3627;SDS011;1830;49.000;12.074;2023-07-22T07:23:10;4.33;;;3.93;;
3627;SDS011;1830;49.000;12.074;2023-07-22T07:25:40;6.23;;;4.27;;
3627;SDS011;1830;49.000;12.074;2023-07-22T07:28:06;5.93;;;3.50;;
3627;SDS011;1830;49.000;12.074;2023-07-22T07:30:33;5.60;;;3.63;;
3627;SDS011;1830;49.000;12.074;2023-07-22T07:33:00;5.00;;;3.73;;
3627;SDS011;1830;49.000;12.074;2023-07-22T07:35:27;10.60;;;5.03;;
3627;SDS011;1830;49.000;12.074;2023-07-22T07:37:53;4.63;;;3.53;;
3627;SDS011;1830;49.000;12.074;2023-07-22T07:40:20;5.63;;;4.07;;
3627;SDS011;1830;49.000;12.074;2023-07-22T07:42:48;18.30;;;5.17;;
3627;SDS011;1830;49.000;12.074;2023-07-22T07:45:15;6.60;;;3.43;;
3627;SDS011;1830;49.000;12.074;2023-07-22T07:47:42;5.70;;;4.00;;
3627;SDS011;1830;49.000;12.074;2023-07-22T07:50:09;25.00;;;4.50;;
3627;SDS011;1830;49.000;12.074;2023-07-22T07:52:36;5.90;;;4.20;;
3627;SDS011;1830;49.000;12.074;2023-07-22T07:55:04;3.80;;;3.50;;
3627;SDS011;1830;49.000;12.074;2023-07-22T07:57:32;5.80;;;3.60;;
3627;SDS011;1830;49.000;12.074;2023-07-22T08:00:00;9.00;;;3.50;;
3627;SDS011;1830;49.000;12.074;2023-07-22T08:02:27;3.67;;;3.30;;
3627;SDS011;1830;49.000;12.074;2023-07-22T08:04:54;4.57;;;3.40;;
3627;SDS011;1830;49.000;12.074;2023-07-22T08:07:21;5.13;;;3.40;;
3627;SDS011;1830;49.000;12.074;2023-07-22T08:09:48;13.77;;;3.93;;
3627;SDS011;1830;49.000;12.074;2023-07-22T08:12:15;5.90;;;3.30;;
3627;SDS011;1830;49.000;12.074;2023-07-22T08:14:42;3.30;;;2.90;;
3627;SDS011;1830;49.000;12.074;2023-07-22T08:17:10;3.27;;;2.97;;
3627;SDS011;1830;49.000;12.074;2023-07-22T08:19:37;5.03;;;3.40;;
3627;SDS011;1830;49.000;12.074;2023-07-22T08:22:04;14.67;;;3.57;;
3627;SDS011;1830;49.000;12.074;2023-07-22T08:24:31;4.00;;;2.97;;
3627;SDS011;1830;49.000;12.074;2023-07-22T08:26:58;5.23;;;3.47;;
3627;SDS011;1830;49.000;12.074;2023-07-22T08:29:25;7.27;;;3.40;;
3627;SDS011;1830;49.000;12.074;2023-07-22T08:31:51;3.37;;;3.07;;
3627;SDS011;1830;49.000;12.074;2023-07-22T08:34:20;8.70;;;4.00;;
3627;SDS011;1830;49.000;12.074;2023-07-22T08:36:46;4.73;;;3.33;;
3627;SDS011;1830;49.000;12.074;2023-07-22T08:39:14;3.40;;;3.10;;
3627;SDS011;1830;49.000;12.074;2023-07-22T08:41:41;3.70;;;3.00;;
3627;SDS011;1830;49.000;12.074;2023-07-22T08:44:14;13.93;;;3.30;;
3627;SDS011;1830;49.000;12.074;2023-07-22T08:46:45;5.17;;;3.43;;
3627;SDS011;1830;49.000;12.074;2023-07-22T08:49:12;4.60;;;2.80;;
3627;SDS011;1830;49.000;12.074;2023-07-22T08:51:42;3.30;;;2.93;;
3627;SDS011;1830;49.000;12.074;2023-07-22T08:54:11;3.10;;;2.80;;
3627;SDS011;1830;49.000;12.074;2023-07-22T08:56:39;5.63;;;2.93;;
3627;SDS011;1830;49.000;12.074;2023-07-22T08:59:06;2.93;;;2.73;;
3627;SDS011;1830;49.000;12.074;2023-07-22T09:01:33;3.30;;;2.93;;
3627;SDS011;1830;49.000;12.074;2023-07-22T09:04:00;3.30;;;3.00;;
3627;SDS011;1830;49.000;12.074;2023-07-22T09:06:27;4.50;;;3.07;;
3627;SDS011;1830;49.000;12.074;2023-07-22T09:08:56;3.43;;;3.00;;
3627;SDS011;1830;49.000;12.074;2023-07-22T09:11:24;4.13;;;3.10;;
3627;SDS011;1830;49.000;12.074;2023-07-22T09:13:52;2.90;;;2.70;;
3627;SDS011;1830;49.000;12.074;2023-07-22T09:16:20;4.00;;;3.10;;
3627;SDS011;1830;49.000;12.074;2023-07-22T09:18:47;4.73;;;2.57;;
3627;SDS011;1830;49.000;12.074;2023-07-22T09:21:14;4.17;;;2.60;;
3627;SDS011;1830;49.000;12.074;2023-07-22T09:23:41;7.90;;;2.77;;
3627;SDS011;1830;49.000;12.074;2023-07-22T09:26:10;15.93;;;2.90;;
3627;SDS011;1830;49.000;12.074;2023-07-22T09:28:50;5.10;;;3.30;;
3627;SDS011;1830;49.000;12.074;2023-07-22T09:31:18;4.03;;;2.70;;
3627;SDS011;1830;49.000;12.074;2023-07-22T09:33:46;4.23;;;3.10;;
3627;SDS011;1830;49.000;12.074;2023-07-22T09:36:13;2.80;;;2.60;;
3627;SDS011;1830;49.000;12.074;2023-07-22T09:38:39;3.37;;;3.13;;
3627;SDS011;1830;49.000;12.074;2023-07-22T09:41:06;5.70;;;3.30;;
3627;SDS011;1830;49.000;12.074;2023-07-22T09:43:37;6.33;;;3.40;;
3627;SDS011;1830;49.000;12.074;2023-07-22T09:46:07;5.57;;;3.10;;
3627;SDS011;1830;49.000;12.074;2023-07-22T09:48:42;18.47;;;3.60;;
3627;SDS011;1830;49.000;12.074;2023-07-22T09:51:13;6.20;;;3.60;;
3627;SDS011;1830;49.000;12.074;2023-07-22T09:53:44;3.40;;;3.10;;
3627;SDS011;1830;49.000;12.074;2023-07-22T09:56:12;3.10;;;2.87;;
3627;SDS011;1830;49.000;12.074;2023-07-22T09:58:40;5.50;;;3.40;;
3627;SDS011;1830;49.000;12.074;2023-07-22T10:01:10;3.30;;;3.00;;
3627;SDS011;1830;49.000;12.074;2023-07-22T10:03:41;4.00;;;3.37;;
3627;SDS011;1830;49.000;12.074;2023-07-22T10:06:11;7.10;;;3.63;;
3627;SDS011;1830;49.000;12.074;2023-07-22T10:08:40;4.43;;;3.10;;
3627;SDS011;1830;49.000;12.074;2023-07-22T10:11:11;7.40;;;2.77;;
3627;SDS011;1830;49.000;12.074;2023-07-22T10:13:40;5.57;;;3.30;;
3627;SDS011;1830;49.000;12.074;2023-07-22T10:16:07;9.07;;;3.27;;
3627;SDS011;1830;49.000;12.074;2023-07-22T10:18:34;3.47;;;3.17;;
3627;SDS011;1830;49.000;12.074;2023-07-22T10:21:03;3.20;;;2.90;;
3627;SDS011;1830;49.000;12.074;2023-07-22T10:23:30;7.57;;;3.17;;
3627;SDS011;1830;49.000;12.074;2023-07-22T10:25:58;5.87;;;2.70;;
3627;SDS011;1830;49.000;12.074;2023-07-22T10:28:25;4.07;;;2.93;;
3627;SDS011;1830;49.000;12.074;2023-07-22T10:30:53;2.97;;;2.70;;
3627;SDS011;1830;49.000;12.074;2023-07-22T10:33:22;4.23;;;3.13;;
3627;SDS011;1830;49.000;12.074;2023-07-22T10:36:01;5.33;;;2.80;;
3627;SDS011;1830;49.000;12.074;2023-07-22T10:38:30;3.63;;;2.87;;
3627;SDS011;1830;49.000;12.074;2023-07-22T10:40:57;4.77;;;2.80;;
3627;SDS011;1830;49.000;12.074;2023-07-22T10:43:24;2.47;;;2.37;;
3627;SDS011;1830;49.000;12.074;2023-07-22T10:45:54;5.63;;;2.90;;
3627;SDS011;1830;49.000;12.074;2023-07-22T10:48:23;6.73;;;3.40;;
3627;SDS011;1830;49.000;12.074;2023-07-22T10:50:53;2.80;;;2.60;;
3627;SDS011;1830;49.000;12.074;2023-07-22T10:53:28;3.07;;;2.77;;
3627;SDS011;1830;49.000;12.074;2023-07-22T10:56:11;5.30;;;2.87;;
3627;SDS011;1830;49.000;12.074;2023-07-22T10:58:56;4.70;;;2.80;;
3627;SDS011;1830;49.000;12.074;2023-07-22T11:01:30;4.50;;;2.50;;
3627;SDS011;1830;49.000;12.074;2023-07-22T11:04:14;2.90;;;2.70;;
3627;SDS011;1830;49.000;12.074;2023-07-22T11:06:55;3.80;;;2.50;;
3627;SDS011;1830;49.000;12.074;2023-07-22T11:12:11;4.37;;;3.20;;
3627;SDS011;1830;49.000;12.074;2023-07-22T11:14:45;4.10;;;3.17;;
3627;SDS011;1830;49.000;12.074;2023-07-22T11:17:14;3.43;;;2.67;;
3627;SDS011;1830;49.000;12.074;2023-07-22T11:19:42;2.97;;;2.60;;
3627;SDS011;1830;49.000;12.074;2023-07-22T11:22:10;4.57;;;2.97;;
3627;SDS011;1830;49.000;12.074;2023-07-22T11:24:37;4.50;;;2.70;;
3627;SDS011;1830;49.000;12.074;2023-07-22T11:27:04;3.17;;;2.50;;
3627;SDS011;1830;49.000;12.074;2023-07-22T11:29:33;5.43;;;2.83;;
3627;SDS011;1830;49.000;12.074;2023-07-22T11:32:00;3.20;;;2.80;;
3627;SDS011;1830;49.000;12.074;2023-07-22T11:34:29;5.97;;;2.87;;
3627;SDS011;1830;49.000;12.074;2023-07-22T11:36:56;10.93;;;2.97;;
3627;SDS011;1830;49.000;12.074;2023-07-22T11:39:24;4.87;;;2.40;;
3627;SDS011;1830;49.000;12.074;2023-07-22T11:41:52;3.17;;;2.30;;
3627;SDS011;1830;49.000;12.074;2023-07-22T11:44:20;5.37;;;3.03;;
3627;SDS011;1830;49.000;12.074;2023-07-22T11:46:51;3.10;;;2.60;;
3627;SDS011;1830;49.000;12.074;2023-07-22T11:49:24;5.60;;;3.30;;
3627;SDS011;1830;49.000;12.074;2023-07-22T11:51:54;4.37;;;2.80;;
3627;SDS011;1830;49.000;12.074;2023-07-22T11:54:22;6.93;;;2.90;;
3627;SDS011;1830;49.000;12.074;2023-07-22T11:56:51;4.40;;;2.57;;
3627;SDS011;1830;49.000;12.074;2023-07-22T11:59:17;2.80;;;2.53;;
3627;SDS011;1830;49.000;12.074;2023-07-22T12:01:59;4.53;;;2.63;;
3627;SDS011;1830;49.000;12.074;2023-07-22T12:04:26;2.90;;;2.70;;
3627;SDS011;1830;49.000;12.074;2023-07-22T12:06:55;5.83;;;3.20;;
3627;SDS011;1830;49.000;12.074;2023-07-22T12:09:22;7.43;;;2.60;;
3627;SDS011;1830;49.000;12.074;2023-07-22T12:11:54;6.93;;;3.20;;
3627;SDS011;1830;49.000;12.074;2023-07-22T12:14:21;2.40;;;2.20;;
3627;SDS011;1830;49.000;12.074;2023-07-22T12:16:48;2.80;;;2.50;;
3627;SDS011;1830;49.000;12.074;2023-07-22T12:19:21;4.10;;;2.47;;
3627;SDS011;1830;49.000;12.074;2023-07-22T12:21:48;5.13;;;3.00;;
3627;SDS011;1830;49.000;12.074;2023-07-22T12:24:16;5.43;;;2.57;;
3627;SDS011;1830;49.000;12.074;2023-07-22T12:26:43;8.88;;;2.85;;
3627;SDS011;1830;49.000;12.074;2023-07-22T12:29:10;4.30;;;2.50;;
3627;SDS011;1830;49.000;12.074;2023-07-22T12:31:37;5.53;;;2.40;;
3627;SDS011;1830;49.000;12.074;2023-07-22T12:34:04;3.22;;;2.92;;
3627;SDS011;1830;49.000;12.074;2023-07-22T12:36:30;3.63;;;2.47;;
3627;SDS011;1830;49.000;12.074;2023-07-22T12:38:57;8.07;;;3.08;;
3627;SDS011;1830;49.000;12.074;2023-07-22T12:41:25;5.50;;;2.70;;
3627;SDS011;1830;49.000;12.074;2023-07-22T12:43:52;5.45;;;2.75;;
3627;SDS011;1830;49.000;12.074;2023-07-22T12:46:19;3.85;;;2.97;;
3627;SDS011;1830;49.000;12.074;2023-07-22T12:48:46;2.25;;;2.15;;
3627;SDS011;1830;49.000;12.074;2023-07-22T12:51:12;6.25;;;2.35;;
3627;SDS011;1830;49.000;12.074;2023-07-22T12:53:39;3.03;;;2.50;;
3627;SDS011;1830;49.000;12.074;2023-07-22T12:56:06;4.18;;;2.50;;
3627;SDS011;1830;49.000;12.074;2023-07-22T12:58:34;4.10;;;2.25;;
3627;SDS011;1830;49.000;12.074;2023-07-22T13:01:01;2.55;;;2.35;;
3627;SDS011;1830;49.000;12.074;2023-07-22T13:03:28;8.20;;;2.55;;
3627;SDS011;1830;49.000;12.074;2023-07-22T13:05:55;6.40;;;3.17;;
3627;SDS011;1830;49.000;12.074;2023-07-22T13:08:22;2.85;;;2.55;;
3627;SDS011;1830;49.000;12.074;2023-07-22T13:10:48;4.95;;;2.80;;
3627;SDS011;1830;49.000;12.074;2023-07-22T13:13:15;2.70;;;2.47;;
3627;SDS011;1830;49.000;12.074;2023-07-22T13:15:43;4.65;;;2.40;;
3627;SDS011;1830;49.000;12.074;2023-07-22T13:18:10;12.95;;;2.83;;
3627;SDS011;1830;49.000;12.074;2023-07-22T13:20:38;18.48;;;3.13;;
3627;SDS011;1830;49.000;12.074;2023-07-22T13:23:05;2.63;;;2.42;;
3627;SDS011;1830;49.000;12.074;2023-07-22T13:25:32;3.00;;;2.70;;
3627;SDS011;1830;49.000;12.074;2023-07-22T13:27:59;4.45;;;2.60;;
3627;SDS011;1830;49.000;12.074;2023-07-22T13:30:26;10.85;;;3.00;;
3627;SDS011;1830;49.000;12.074;2023-07-22T13:32:55;4.50;;;2.50;;
3627;SDS011;1830;49.000;12.074;2023-07-22T13:35:22;3.45;;;2.33;;
3627;SDS011;1830;49.000;12.074;2023-07-22T13:37:48;7.85;;;3.42;;
3627;SDS011;1830;49.000;12.074;2023-07-22T13:40:15;2.78;;;2.58;;
3627;SDS011;1830;49.000;12.074;2023-07-22T13:42:42;2.60;;;2.40;;
3627;SDS011;1830;49.000;12.074;2023-07-22T13:45:09;3.25;;;2.88;;
3627;SDS011;1830;49.000;12.074;2023-07-22T13:47:36;4.38;;;3.28;;
3627;SDS011;1830;49.000;12.074;2023-07-22T13:50:04;5.70;;;3.40;;
3627;SDS011;1830;49.000;12.074;2023-07-22T13:52:32;3.53;;;3.22;;
3627;SDS011;1830;49.000;12.074;2023-07-22T13:54:58;4.55;;;3.75;;
3627;SDS011;1830;49.000;12.074;2023-07-22T13:57:25;3.67;;;3.22;;
3627;SDS011;1830;49.000;12.074;2023-07-22T13:59:52;2.50;;;2.30;;
3627;SDS011;1830;49.000;12.074;2023-07-22T14:02:19;3.30;;;2.35;;
3627;SDS011;1830;49.000;12.074;2023-07-22T14:04:46;2.88;;;2.67;;
3627;SDS011;1830;49.000;12.074;2023-07-22T14:07:14;3.75;;;3.22;;
3627;SDS011;1830;49.000;12.074;2023-07-22T14:09:42;2.83;;;2.63;;
3627;SDS011;1830;49.000;12.074;2023-07-22T14:12:09;4.45;;;3.00;;
3627;SDS011;1830;49.000;12.074;2023-07-22T14:14:36;6.05;;;2.92;;
3627;SDS011;1830;49.000;12.074;2023-07-22T14:17:03;3.50;;;2.97;;
3627;SDS011;1830;49.000;12.074;2023-07-22T14:19:30;3.78;;;2.90;;
3627;SDS011;1830;49.000;12.074;2023-07-22T14:21:57;3.70;;;3.08;;
3627;SDS011;1830;49.000;12.074;2023-07-22T14:24:25;4.85;;;2.92;;
3627;SDS011;1830;49.000;12.074;2023-07-22T14:26:52;5.20;;;3.08;;
3627;SDS011;1830;49.000;12.074;2023-07-22T14:29:19;3.55;;;3.08;;
3627;SDS011;1830;49.000;12.074;2023-07-22T14:31:46;3.40;;;3.10;;
3627;SDS011;1830;49.000;12.074;2023-07-22T14:34:13;3.78;;;3.22;;
3627;SDS011;1830;49.000;12.074;2023-07-22T14:36:40;6.82;;;3.00;;
3627;SDS011;1830;49.000;12.074;2023-07-22T14:39:08;5.15;;;3.13;;
3627;SDS011;1830;49.000;12.074;2023-07-22T14:41:37;4.15;;;3.50;;
3627;SDS011;1830;49.000;12.074;2023-07-22T14:44:04;3.28;;;2.78;;
3627;SDS011;1830;49.000;12.074;2023-07-22T14:46:31;5.90;;;3.03;;
3627;SDS011;1830;49.000;12.074;2023-07-22T14:48:57;3.00;;;2.75;;
3627;SDS011;1830;49.000;12.074;2023-07-22T14:51:24;3.83;;;3.40;;
3627;SDS011;1830;49.000;12.074;2023-07-22T14:53:51;6.50;;;2.78;;
3627;SDS011;1830;49.000;12.074;2023-07-22T14:56:18;9.30;;;3.30;;
3627;SDS011;1830;49.000;12.074;2023-07-22T14:58:46;3.10;;;2.90;;
3627;SDS011;1830;49.000;12.074;2023-07-22T15:01:14;3.22;;;2.97;;
3627;SDS011;1830;49.000;12.074;2023-07-22T15:03:41;4.15;;;3.50;;
3627;SDS011;1830;49.000;12.074;2023-07-22T15:06:08;3.17;;;2.97;;